WetterOnline ( https://www.wetteronline.at )

Wetter aktuell Cottbus

Aktuelles Wetter: Cottbus (70m)

6-stündlich | Neueste Meldungen
Ortszeit Temperatur Wetter
Sa, 21.09. 14:00 19.0° C fast wolkenlos
Sa, 21.09. 8:00 6.0° C wolkenlos
Sa, 21.09. 2:00 5.3° C wolkenlos
Fr, 20.09. 20:00 9.8° C wolkig
Fr, 20.09. 14:00 15.1° C wolkig
Fr, 20.09. 8:00 4.9° C bewölkt
Fr, 20.09. 2:00 3.5° C wolkig
Do, 19.09. 20:00 10.5° C bedeckt
Ortszeit Temperatur Wetter
Sa, 21.09. 17:00 21.2° C leicht bewölkt
Sa, 21.09. 16:50 21.2° C leicht bewölkt
Sa, 21.09. 16:40 21.0° C fast wolkenlos
Sa, 21.09. 16:30 20.9° C leicht bewölkt
Sa, 21.09. 16:20 20.9° C leicht bewölkt
Sa, 21.09. 16:10 21.5° C leicht bewölkt
Sa, 21.09. 16:00 20.7° C fast wolkenlos
Sa, 21.09. 15:30 20.8° C leicht bewölkt
Sa, 21.09. 15:00 20.1° C leicht bewölkt
Sa, 21.09. 14:30 20.1° C wolkenlos
Sa, 21.09. 14:00 19.0° C fast wolkenlos
Ortszeit Relative Feuchte Sichtweite
Sa, 21.09. 14:00 41% 45 km
Sa, 21.09. 8:00 88% 40 km
Sa, 21.09. 2:00 95% 40 km
Fr, 20.09. 20:00 78% 65 km
Fr, 20.09. 14:00 48% 45 km
Fr, 20.09. 8:00 89% 45 km
Fr, 20.09. 2:00 93% 55 km
Do, 19.09. 20:00 64% 65 km
Ortszeit Relative Feuchte Sichtweite
Sa, 21.09. 17:00 38% 55 km
Sa, 21.09. 16:50 38% -
Sa, 21.09. 16:40 38% -
Sa, 21.09. 16:30 38% >70 km
Sa, 21.09. 16:20 38% -
Sa, 21.09. 16:10 38% -
Sa, 21.09. 16:00 38% >70 km
Sa, 21.09. 15:30 39% 50 km
Sa, 21.09. 15:00 40% 65 km
Sa, 21.09. 14:30 41% >70 km
Sa, 21.09. 14:00 41% 45 km
Ortszeit Niederschlagsmenge Niederschlagsart
Sa, 21.09. 14:00 0.1 l/m2 in 6 Std. Niederschlag
Sa, 21.09. 8:00 0.0 l/m2 in 12 Std. -
Sa, 21.09. 2:00 0.0 l/m2 in 6 Std. -
Fr, 20.09. 20:00 0.0 l/m2 in 12 Std. -
Fr, 20.09. 14:00 0.0 l/m2 in 6 Std. -
Fr, 20.09. 8:00 0.0 l/m2 in 12 Std. -
Fr, 20.09. 2:00 0.0 l/m2 in 6 Std. -
Do, 19.09. 20:00 0.0 l/m2 in 3 Std. -
Ortszeit Niederschlagsmenge Niederschlagsart
Sa, 21.09. 17:00 0.0 l/m2 in 1 Std. -
Sa, 21.09. 16:50 keine Meldung -
Sa, 21.09. 16:40 keine Meldung -
Sa, 21.09. 16:30 0.0 l/m2 in 1 Std. -
Sa, 21.09. 16:20 keine Meldung -
Sa, 21.09. 16:10 keine Meldung -
Sa, 21.09. 16:00 0.0 l/m2 in 1 Std. -
Sa, 21.09. 15:30 0.0 l/m2 in 1 Std. -
Sa, 21.09. 15:00 0.0 l/m2 in 1 Std. -
Sa, 21.09. 14:30 0.0 l/m2 in 1 Std. -
Sa, 21.09. 14:00 0.1 l/m2 in 1 Std. Niederschlag
Ortszeit Stärke Spitze Richtung
km/h Bft. km/h Grad Sektor
Sa, 21.09. 14:00 7 2 20 250° W
Sa, 21.09. 8:00 6 1 11 210° SW
Sa, 21.09. 2:00 6 1 9 210° SW
Fr, 20.09. 20:00 4 1 25 280° W
Fr, 20.09. 14:00 13 3 22 290° W
Fr, 20.09. 8:00 7 2 11 230° SW
Fr, 20.09. 2:00 4 1 7 230° SW
Do, 19.09. 20:00 4 1 29 270° W
Ortszeit Stärke Spitze Richtung
km/h Bft. km/h Grad Sektor
Sa, 21.09. 17:00 7 2 14 240° SW
Sa, 21.09. 16:50 7 2 - 240° SW
Sa, 21.09. 16:40 4 1 - 250° W
Sa, 21.09. 16:30 7 2 14 210° SW
Sa, 21.09. 16:20 7 2 - 210° SW
Sa, 21.09. 16:10 7 2 - 210° SW
Sa, 21.09. 16:00 4 1 14 170° S
Sa, 21.09. 15:30 7 2 14 200° S
Sa, 21.09. 15:00 4 1 18 220° SW
Sa, 21.09. 14:30 6 1 19 270° W
Sa, 21.09. 14:00 7 2 20 250° W
Ortszeit Untergrenze Bedeckung Gattung
total tief tief mittel hoch
Sa, 21.09. 14:00 12000 m 2/8 0/8 - - -
Sa, 21.09. 8:00 - 0/8 0/8 - - -
Sa, 21.09. 2:00 - 0/8 0/8 - - -
Fr, 20.09. 20:00 10500 m 8/8 0/8 - - -
Fr, 20.09. 14:00 1140 m 7/8 2/8 - - -
Fr, 20.09. 8:00 1230 m 7/8 7/8 - - -
Fr, 20.09. 2:00 8400 m 8/8 0/8 - - -
Do, 19.09. 20:00 6300 m 8/8 8/8 - - -
Ortszeit Bedeckungsgrad in Achtel und Wolkenuntergrenze
Sa, 21.09. 17:00 5(10500m)
Sa, 21.09. 16:50 5(10500m)
Sa, 21.09. 16:40 1(10500m)
Sa, 21.09. 16:30 3(12000m)
Sa, 21.09. 16:20 3(12000m)
Sa, 21.09. 16:10 4(12000m)
Sa, 21.09. 16:00 1(12000m)
Sa, 21.09. 15:30 4(10500m)
Sa, 21.09. 15:00 4(10500m)
Sa, 21.09. 14:30 keine Wolken
Sa, 21.09. 14:00 2(12000m)
Ortszeit Luftdruck NN (hPa) Tendenz (hPa in 3 Std.)
Sa, 21.09. 14:00 1023 - 1,7
Sa, 21.09. 8:00 1025 - 0,2
Sa, 21.09. 2:00 1026 - 0,9
Fr, 20.09. 20:00 1027 + 0,1
Fr, 20.09. 14:00 1028 - 0,7
Fr, 20.09. 8:00 1028 + 0,1
Fr, 20.09. 2:00 1029 0,0
Do, 19.09. 20:00 1028 + 1,1
Ortszeit Luftdruck NN (hPa) Tendenz (hPa in 3 Std.)
Sa, 21.09. 17:00 1021 - 1,7
Sa, 21.09. 16:50 1021 keine Meldung
Sa, 21.09. 16:40 1021 keine Meldung
Sa, 21.09. 16:30 1021 - 1,6
Sa, 21.09. 16:20 1021 keine Meldung
Sa, 21.09. 16:10 1022 keine Meldung
Sa, 21.09. 16:00 1022 - 1,8
Sa, 21.09. 15:30 1022 - 1,9
Sa, 21.09. 15:00 1022 - 1,7
Sa, 21.09. 14:30 1022 - 1,7
Sa, 21.09. 14:00 1023 - 1,7
Ortszeit Schneehöhe (cm)
Sa, 21.09. 14:00 -
Sa, 21.09. 8:00 -
Sa, 21.09. 2:00 -
Fr, 20.09. 20:00 -
Fr, 20.09. 14:00 -
Fr, 20.09. 8:00 -
Fr, 20.09. 2:00 -
Do, 19.09. 20:00 -
Ortszeit Schneehöhe (cm)
Sa, 21.09. 17:00 -
Sa, 21.09. 16:50 -
Sa, 21.09. 16:40 -
Sa, 21.09. 16:30 -
Sa, 21.09. 16:20 -
Sa, 21.09. 16:10 -
Sa, 21.09. 16:00 -
Sa, 21.09. 15:30 -
Sa, 21.09. 15:00 -
Sa, 21.09. 14:30 -
Sa, 21.09. 14:00 -
Link zu dieser Seite / Seite empfehlen

Das Wetter in ...